createdAt,value
2023-11-30T00:02:18.860Z,-4.42
2023-11-30T00:05:23.635Z,-4.33
2023-11-30T00:08:25.656Z,-4.38
2023-11-30T00:11:27.569Z,-4.36
2023-11-30T00:14:29.302Z,-4.32
2023-11-30T00:17:31.133Z,-4.31
2023-11-30T00:20:35.184Z,-4.60
2023-11-30T00:23:37.205Z,-4.67
2023-11-30T00:26:39.046Z,-4.29
2023-11-30T00:29:40.905Z,-4.34
2023-11-30T00:32:42.923Z,-4.25
2023-11-30T00:35:46.458Z,-4.19
2023-11-30T00:38:48.293Z,-4.30
2023-11-30T00:41:50.615Z,-4.22
2023-11-30T00:44:52.463Z,-4.23
2023-11-30T00:48:00.950Z,-4.35
2023-11-30T00:51:04.648Z,-4.33
2023-11-30T00:54:06.740Z,-4.29
2023-11-30T00:57:09.059Z,-4.31
2023-11-30T01:00:11.592Z,-4.34
2023-11-30T01:03:13.524Z,-4.33
2023-11-30T01:06:17.201Z,-4.34
2023-11-30T01:09:19.095Z,-4.45
2023-11-30T01:12:21.344Z,-4.37
2023-11-30T01:15:23.183Z,-4.45
2023-11-30T01:18:25.494Z,-4.64
2023-11-30T01:21:28.885Z,-4.40
2023-11-30T01:24:30.723Z,-4.43
2023-11-30T01:27:32.503Z,-4.40
2023-11-30T01:30:34.375Z,-4.69
2023-11-30T01:33:36.615Z,-4.43
2023-11-30T01:36:40.880Z,-4.40
2023-11-30T01:39:42.612Z,-4.39
2023-11-30T01:42:44.494Z,-4.42
2023-11-30T01:45:46.437Z,-4.40
2023-11-30T01:48:48.816Z,-5.00
2023-11-30T01:51:52.563Z,-4.48
2023-11-30T01:54:55.225Z,-4.38
2023-11-30T01:57:57.506Z,-4.38
2023-11-30T02:00:59.678Z,-4.69
2023-11-30T02:04:11.445Z,-4.41
2023-11-30T02:07:14.743Z,-4.40
2023-11-30T02:10:17.183Z,-4.43
2023-11-30T02:13:18.963Z,-4.42
2023-11-30T02:16:21.108Z,-4.25
2023-11-30T02:19:22.974Z,-4.23
2023-11-30T02:22:26.697Z,-4.67
2023-11-30T02:25:28.464Z,-4.45
2023-11-30T02:28:30.451Z,-4.16
2023-11-30T02:31:32.519Z,-4.19
2023-11-30T02:34:34.477Z,-4.13
2023-11-30T02:37:37.809Z,-4.24
2023-11-30T02:40:39.819Z,-4.97
2023-11-30T02:43:41.609Z,-4.07
2023-11-30T02:46:43.412Z,-4.83
2023-11-30T02:49:45.384Z,-4.10
2023-11-30T02:52:49.779Z,-4.09
2023-11-30T02:55:51.579Z,-4.74
2023-11-30T02:58:53.552Z,-4.09
2023-11-30T03:01:55.544Z,-4.08
2023-11-30T03:04:57.555Z,-4.57
2023-11-30T03:08:01.004Z,-4.11
2023-11-30T03:11:02.777Z,-4.14
2023-11-30T03:14:04.890Z,-4.16
2023-11-30T03:17:06.613Z,-4.19
2023-11-30T03:20:09.496Z,-4.14
2023-11-30T03:23:12.788Z,-4.07
2023-11-30T03:26:17.018Z,-4.47
2023-11-30T03:29:18.847Z,-4.04
2023-11-30T03:32:20.588Z,-4.16
2023-11-30T03:35:22.439Z,-4.07
2023-11-30T03:38:25.767Z,-3.98
2023-11-30T03:41:27.713Z,-4.09
2023-11-30T03:44:29.605Z,-3.99
2023-11-30T03:47:31.523Z,-3.94
2023-11-30T03:50:33.594Z,-3.95
2023-11-30T03:53:37.170Z,-4.00
2023-11-30T03:56:39.254Z,-3.94
2023-11-30T03:59:41.208Z,-4.02
2023-11-30T04:02:45.219Z,-3.99
2023-11-30T04:05:47.011Z,-4.02
2023-11-30T04:08:50.900Z,-4.00
2023-11-30T04:11:52.679Z,-4.00
2023-11-30T04:14:54.560Z,-4.02
2023-11-30T04:17:56.553Z,-4.61
2023-11-30T04:20:58.412Z,-4.08
2023-11-30T04:24:01.864Z,-4.44
2023-11-30T04:27:04.284Z,-4.03
2023-11-30T04:30:08.161Z,-4.11
2023-11-30T04:33:10.358Z,-4.01
2023-11-30T04:36:12.531Z,-4.01
2023-11-30T04:39:15.857Z,-4.03
2023-11-30T04:42:17.676Z,-4.03
2023-11-30T04:45:20.056Z,-4.37
2023-11-30T04:48:21.870Z,-4.07
2023-11-30T04:51:24.175Z,-4.09
2023-11-30T04:54:27.641Z,-4.14
2023-11-30T04:57:29.531Z,-4.06
2023-11-30T05:00:31.618Z,-4.55
2023-11-30T05:03:34.004Z,-4.05
2023-11-30T05:06:35.934Z,-4.18
2023-11-30T05:09:39.141Z,-4.07
2023-11-30T05:12:41.312Z,-4.01
2023-11-30T05:15:45.084Z,-4.08
2023-11-30T05:18:48.232Z,-4.37
2023-11-30T05:21:50.234Z,-3.89
2023-11-30T05:24:53.716Z,-3.82
2023-11-30T05:27:55.509Z,-3.75
2023-11-30T05:30:57.885Z,-3.66
2023-11-30T05:33:59.760Z,-3.61
2023-11-30T05:37:02.170Z,-4.12
2023-11-30T05:40:07.298Z,-3.53
2023-11-30T05:43:09.367Z,-3.59
2023-11-30T05:46:11.441Z,-3.52
2023-11-30T05:49:13.642Z,-3.31
2023-11-30T05:52:15.560Z,-3.35
2023-11-30T05:55:19.176Z,-3.27
2023-11-30T05:58:21.267Z,-3.45
2023-11-30T06:01:23.043Z,-3.25
2023-11-30T06:04:25.043Z,-3.27
2023-11-30T06:07:26.923Z,-3.21
2023-11-30T06:10:30.291Z,-3.17
2023-11-30T06:13:32.200Z,-3.16
2023-11-30T06:16:35.579Z,-3.24
2023-11-30T06:19:37.367Z,-3.26
2023-11-30T06:22:39.754Z,-3.25
2023-11-30T06:25:43.160Z,-3.26
2023-11-30T06:28:45.027Z,-3.25
2023-11-30T06:31:47.233Z,-3.26
2023-11-30T06:34:49.133Z,-3.28
2023-11-30T06:37:50.848Z,-3.29
2023-11-30T06:40:54.564Z,-3.29
2023-11-30T06:43:56.763Z,-3.24
2023-11-30T06:47:05.320Z,-3.37
2023-11-30T06:50:09.201Z,-3.72
2023-11-30T06:53:11.512Z,-3.25
2023-11-30T06:56:14.968Z,-3.23
2023-11-30T06:59:17.639Z,-3.26
2023-11-30T07:02:20.362Z,-3.23
2023-11-30T07:05:22.326Z,-3.28
2023-11-30T07:08:25.190Z,-3.35
2023-11-30T07:11:28.639Z,-3.37
2023-11-30T07:14:30.424Z,-3.42
2023-11-30T07:17:52.078Z,-3.52
2023-11-30T07:20:53.851Z,-3.91
2023-11-30T07:23:56.257Z,-3.52
2023-11-30T07:27:00.149Z,-3.48
2023-11-30T07:30:02.814Z,-3.89
2023-11-30T07:33:04.779Z,-3.47
2023-11-30T07:36:07.396Z,-3.52
2023-11-30T07:39:09.417Z,-3.66
2023-11-30T07:42:16.735Z,-3.56
2023-11-30T07:45:20.601Z,-3.62
2023-11-30T07:48:22.637Z,-3.64
2023-11-30T07:51:24.900Z,-3.66
2023-11-30T07:54:26.821Z,-3.68
2023-11-30T07:57:30.170Z,-3.67
2023-11-30T08:00:32.732Z,-3.59
2023-11-30T08:03:34.880Z,-3.66
2023-11-30T08:06:36.824Z,-3.76
2023-11-30T08:09:39.057Z,-3.62
2023-11-30T08:12:42.240Z,-3.74
2023-11-30T08:15:44.037Z,-3.61
2023-11-30T08:18:46.263Z,-3.66
2023-11-30T08:21:48.238Z,-3.65
2023-11-30T08:24:51.967Z,-3.69
2023-11-30T08:27:55.628Z,-3.63
2023-11-30T08:30:57.699Z,-3.67
2023-11-30T08:33:59.712Z,-3.73
2023-11-30T08:37:01.636Z,-3.60
2023-11-30T08:40:03.791Z,-3.65
2023-11-30T08:43:06.890Z,-3.64
2023-11-30T08:46:08.998Z,-3.68
2023-11-30T08:49:10.889Z,-3.73
2023-11-30T08:52:13.013Z,-3.68
2023-11-30T08:55:14.995Z,-3.82
2023-11-30T08:58:18.730Z,-3.67
2023-11-30T09:01:20.625Z,-3.69
2023-11-30T09:04:22.746Z,-3.68
2023-11-30T09:07:24.759Z,-3.72
2023-11-30T09:10:26.942Z,-3.76
2023-11-30T09:13:30.474Z,-3.76
2023-11-30T09:16:32.209Z,-3.70
2023-11-30T09:19:34.764Z,-4.12
2023-11-30T09:22:36.920Z,-3.70
2023-11-30T09:25:38.772Z,-3.67
2023-11-30T09:28:41.997Z,-4.07
2023-11-30T09:31:44.412Z,-3.66
2023-11-30T09:34:46.621Z,-4.03
2023-11-30T09:37:48.655Z,-3.65
2023-11-30T09:40:52.672Z,-3.54
2023-11-30T09:43:57.710Z,-3.56
2023-11-30T09:46:59.762Z,-3.48
2023-11-30T09:50:01.595Z,-3.50
2023-11-30T09:53:03.785Z,-3.48
2023-11-30T09:56:06.820Z,-3.42
2023-11-30T09:59:10.026Z,-3.53
2023-11-30T10:02:11.942Z,-3.36
2023-11-30T10:05:13.916Z,-3.38
2023-11-30T10:08:15.969Z,-3.36
2023-11-30T10:11:17.915Z,-5.27
2023-11-30T10:14:21.669Z,-3.67
2023-11-30T10:17:23.791Z,-3.26
2023-11-30T10:20:25.772Z,-3.15
2023-11-30T10:23:27.597Z,-3.10
2023-11-30T10:26:33.890Z,-3.69
2023-11-30T10:29:43.235Z,-3.01
2023-11-30T10:32:45.637Z,-3.00
2023-11-30T10:35:50.641Z,-2.90
2023-11-30T10:38:53.902Z,-2.91
2023-11-30T10:41:56.498Z,-2.89
2023-11-30T10:45:03.112Z,-2.77
2023-11-30T10:48:06.610Z,-2.76
2023-11-30T10:51:11.703Z,-2.89
2023-11-30T10:54:26.131Z,-2.63
2023-11-30T10:57:28.184Z,-2.90
2023-11-30T11:00:35.396Z,-2.54
2023-11-30T11:03:37.579Z,-2.55
2023-11-30T11:06:39.470Z,-2.50
2023-11-30T11:09:43.450Z,-2.87
2023-11-30T11:12:50.192Z,-2.89
2023-11-30T11:16:00.900Z,-2.82
2023-11-30T11:19:05.081Z,-2.30
2023-11-30T11:22:15.747Z,-2.31
2023-11-30T11:25:17.747Z,-2.25
2023-11-30T11:28:21.288Z,-2.28
2023-11-30T11:31:24.999Z,-2.17
2023-11-30T11:34:27.065Z,-2.79
2023-11-30T11:37:28.996Z,-2.84
2023-11-30T11:40:30.941Z,-2.53
2023-11-30T11:43:32.770Z,-2.15
2023-11-30T11:46:36.291Z,-2.06
2023-11-30T11:49:39.283Z,-2.41
2023-11-30T11:52:41.249Z,-2.15
2023-11-30T11:55:43.251Z,-1.99
2023-11-30T11:58:45.793Z,-2.81
2023-11-30T12:01:49.036Z,-2.38
2023-11-30T12:04:51.175Z,-2.38
2023-11-30T12:07:55.965Z,-2.53
2023-11-30T12:10:58.636Z,-1.88
2023-11-30T12:14:00.557Z,-2.06
2023-11-30T12:17:03.771Z,-2.27
2023-11-30T12:20:06.984Z,-1.90
2023-11-30T12:23:08.947Z,-1.96
2023-11-30T12:26:10.954Z,-2.08
2023-11-30T12:29:12.880Z,-2.16
2023-11-30T12:32:16.048Z,-1.86
2023-11-30T12:35:17.881Z,-1.74
2023-11-30T12:38:19.914Z,-1.61
2023-11-30T12:41:21.866Z,-2.07
2023-11-30T12:44:23.766Z,-1.64
2023-11-30T12:47:33.354Z,-1.75
2023-11-30T12:50:35.278Z,-1.63
2023-11-30T12:53:37.193Z,-1.62
2023-11-30T12:56:38.989Z,-1.73
2023-11-30T12:59:40.851Z,-1.67
2023-11-30T13:02:44.717Z,-1.72
2023-11-30T13:05:47.161Z,-1.69
2023-11-30T13:08:49.048Z,-1.87
2023-11-30T13:11:50.993Z,-1.72
2023-11-30T13:14:53.148Z,-2.52
2023-11-30T13:17:56.475Z,-1.57
2023-11-30T13:20:58.411Z,-1.59
2023-11-30T13:24:00.414Z,-1.59
2023-11-30T13:27:02.390Z,-1.70
2023-11-30T13:30:05.294Z,-1.80
2023-11-30T13:33:09.884Z,-1.77
2023-11-30T13:36:12.496Z,-1.85
2023-11-30T13:39:14.267Z,-1.88
2023-11-30T13:42:16.365Z,-2.17
2023-11-30T13:45:18.525Z,-2.02
2023-11-30T13:48:21.767Z,-2.06
2023-11-30T13:51:23.745Z,-2.01
2023-11-30T13:54:25.654Z,-2.30
2023-11-30T13:57:27.705Z,-2.03
2023-11-30T14:00:29.840Z,-2.09
2023-11-30T14:03:33.416Z,-2.17
2023-11-30T14:06:36.443Z,-2.75
2023-11-30T14:09:38.699Z,-2.21
2023-11-30T14:12:41.287Z,-2.26
2023-11-30T14:15:43.051Z,-2.32
2023-11-30T14:18:46.746Z,-3.07
2023-11-30T14:21:48.722Z,-2.35
2023-11-30T14:24:52.882Z,-2.38
2023-11-30T14:27:54.979Z,-2.54
2023-11-30T14:30:57.088Z,-2.92
2023-11-30T14:34:00.395Z,-2.93
2023-11-30T14:37:02.364Z,-2.58
2023-11-30T14:40:06.252Z,-3.26
2023-11-30T14:43:08.256Z,-2.67
2023-11-30T14:46:10.268Z,-2.71
2023-11-30T14:49:14.013Z,-2.69
2023-11-30T14:52:17.359Z,-3.24
2023-11-30T14:55:19.222Z,-2.76
2023-11-30T14:58:21.001Z,-2.79
2023-11-30T15:01:22.928Z,-3.29
2023-11-30T15:04:26.429Z,-3.27
2023-11-30T15:07:28.244Z,-2.85
2023-11-30T15:10:30.047Z,-2.92
2023-11-30T15:13:31.839Z,-3.41
2023-11-30T15:16:34.169Z,-3.01
2023-11-30T15:19:37.851Z,-3.03
2023-11-30T15:22:40.063Z,-3.06
2023-11-30T15:25:42.212Z,-3.48
2023-11-30T15:28:44.173Z,-3.13
2023-11-30T15:31:46.302Z,-3.17
2023-11-30T15:34:49.892Z,-3.53
2023-11-30T15:37:52.482Z,-3.18
2023-11-30T15:40:54.352Z,-3.66
2023-11-30T15:43:56.591Z,-3.30
2023-11-30T15:46:58.531Z,-3.72
2023-11-30T15:50:02.215Z,-3.32
2023-11-30T15:53:04.126Z,-3.48
2023-11-30T15:56:06.508Z,-3.39
2023-11-30T15:59:08.498Z,-3.42
2023-11-30T16:02:10.443Z,-3.44
2023-11-30T16:05:14.640Z,-3.51
2023-11-30T16:08:17.407Z,-3.52
2023-11-30T16:11:19.324Z,-3.49
2023-11-30T16:14:21.278Z,-3.82
2023-11-30T16:17:23.108Z,-3.67
2023-11-30T16:20:26.363Z,-3.52
2023-11-30T16:23:28.220Z,-3.59
2023-11-30T16:26:30.405Z,-3.67
2023-11-30T16:29:32.326Z,-4.13
2023-11-30T16:32:34.224Z,-3.71
2023-11-30T16:35:37.460Z,-3.75
2023-11-30T16:38:39.727Z,-3.74
2023-11-30T16:41:41.707Z,-3.74
2023-11-30T16:44:43.675Z,-4.11
2023-11-30T16:47:45.571Z,-3.69
2023-11-30T16:50:49.174Z,-4.20
2023-11-30T16:53:51.083Z,-4.13
2023-11-30T16:56:52.884Z,-3.71
2023-11-30T16:59:54.670Z,-3.71
2023-11-30T17:02:56.763Z,-4.10
2023-11-30T17:05:59.965Z,-3.64
2023-11-30T17:09:02.473Z,-3.73
2023-11-30T17:12:06.456Z,-3.72
2023-11-30T17:15:09.862Z,-3.73
2023-11-30T17:18:12.176Z,-3.90
2023-11-30T17:21:15.984Z,-3.79
2023-11-30T17:24:17.755Z,-3.81
2023-11-30T17:27:19.632Z,-3.89
2023-11-30T17:30:21.540Z,-4.19
2023-11-30T17:33:23.577Z,-3.76
2023-11-30T17:36:26.972Z,-3.75
2023-11-30T17:39:29.185Z,-3.79
2023-11-30T17:42:31.173Z,-3.97
2023-11-30T17:45:33.191Z,-3.74
2023-11-30T17:48:35.206Z,-3.67
2023-11-30T17:51:38.552Z,-3.82
2023-11-30T17:54:40.494Z,-3.60
2023-11-30T17:57:43.587Z,-3.62
2023-11-30T18:00:45.402Z,-3.67
2023-11-30T18:03:47.369Z,-3.52
2023-11-30T18:06:50.888Z,-3.92
2023-11-30T18:09:52.696Z,-4.20
2023-11-30T18:12:54.738Z,-3.46
2023-11-30T18:15:57.016Z,-3.46
2023-11-30T18:18:58.869Z,-3.54
2023-11-30T18:22:02.078Z,-3.54
2023-11-30T18:25:04.117Z,-3.65
2023-11-30T18:28:06.196Z,-3.56
2023-11-30T18:31:16.541Z,-3.60
2023-11-30T18:34:24.044Z,-3.59
2023-11-30T18:37:27.144Z,-3.52
2023-11-30T18:40:29.128Z,-3.59
2023-11-30T18:43:31.783Z,-3.59
2023-11-30T18:46:33.365Z,-3.59
2023-11-30T18:49:35.579Z,-3.58
2023-11-30T18:52:38.846Z,-3.61
2023-11-30T18:55:40.624Z,-3.61
2023-11-30T18:58:42.562Z,-3.54
2023-11-30T19:01:44.421Z,-4.01
2023-11-30T19:04:46.522Z,-3.63
2023-11-30T19:07:49.757Z,-3.51
2023-11-30T19:10:51.592Z,-3.49
2023-11-30T19:13:53.365Z,-3.42
2023-11-30T19:16:55.558Z,-3.77
2023-11-30T19:19:57.393Z,-3.34
2023-11-30T19:23:00.712Z,-3.32
2023-11-30T19:26:02.471Z,-3.24
2023-11-30T19:29:04.439Z,-3.18
2023-11-30T19:32:06.846Z,-3.33
2023-11-30T19:35:09.379Z,-3.19
2023-11-30T19:38:12.687Z,-3.65
2023-11-30T19:41:14.634Z,-3.21
2023-11-30T19:44:16.926Z,-3.25
2023-11-30T19:47:25.434Z,-3.22
2023-11-30T19:50:27.611Z,-3.59
2023-11-30T19:53:30.999Z,-3.15
2023-11-30T19:56:33.042Z,-3.12
2023-11-30T19:59:34.890Z,-3.11
2023-11-30T20:02:36.940Z,-3.07
2023-11-30T20:05:38.953Z,-3.58
2023-11-30T20:08:42.182Z,-3.17
2023-11-30T20:11:43.985Z,-3.21
2023-11-30T20:14:45.846Z,-3.21
2023-11-30T20:17:47.753Z,-3.27
2023-11-30T20:20:49.562Z,-3.18
2023-11-30T20:23:52.793Z,-3.39
2023-11-30T20:26:54.758Z,-3.20
2023-11-30T20:29:56.547Z,-3.28
2023-11-30T20:32:58.457Z,-3.27
2023-11-30T20:36:00.300Z,-3.30
2023-11-30T20:39:03.523Z,-3.31
2023-11-30T20:42:05.743Z,-3.43
2023-11-30T20:45:09.220Z,-3.37
2023-11-30T20:48:11.062Z,-3.40
2023-11-30T20:51:18.105Z,-3.33
2023-11-30T20:54:21.634Z,-3.40
2023-11-30T20:57:23.431Z,-3.83
2023-11-30T21:00:25.340Z,-3.42
2023-11-30T21:03:27.293Z,-3.45
2023-11-30T21:06:29.117Z,-3.43
2023-11-30T21:09:32.537Z,-3.46
2023-11-30T21:12:34.493Z,-3.57
2023-11-30T21:15:36.415Z,-3.96
2023-11-30T21:18:38.388Z,-3.54
2023-11-30T21:21:40.308Z,-3.62
2023-11-30T21:24:43.471Z,-3.57
2023-11-30T21:27:45.261Z,-3.63
2023-11-30T21:30:47.120Z,-3.72
2023-11-30T21:33:49.245Z,-3.72
2023-11-30T21:36:50.985Z,-3.74
2023-11-30T21:39:54.371Z,-4.38
2023-11-30T21:42:56.472Z,-4.14
2023-11-30T21:45:58.369Z,-4.23
2023-11-30T21:49:00.561Z,-4.23
2023-11-30T21:52:02.888Z,-3.88
2023-11-30T21:55:06.884Z,-3.88
2023-11-30T21:58:09.032Z,-4.06
2023-11-30T22:01:11.275Z,-3.97
2023-11-30T22:04:13.316Z,-3.91
2023-11-30T22:07:15.681Z,-4.23
2023-11-30T22:10:19.360Z,-4.16
2023-11-30T22:13:21.166Z,-4.20
2023-11-30T22:16:28.919Z,-4.21
2023-11-30T22:19:35.162Z,-4.79
2023-11-30T22:22:37.133Z,-4.13
2023-11-30T22:25:40.510Z,-4.22
2023-11-30T22:28:42.239Z,-4.19
2023-11-30T22:31:44.133Z,-4.33
2023-11-30T22:34:46.169Z,-4.39
2023-11-30T22:37:48.453Z,-4.32
2023-11-30T22:40:51.646Z,-4.88
2023-11-30T22:43:53.665Z,-4.34
2023-11-30T22:46:55.786Z,-4.79
2023-11-30T22:49:57.758Z,-4.35
2023-11-30T22:52:59.758Z,-4.41
2023-11-30T22:56:03.534Z,-4.55
2023-11-30T22:59:06.174Z,-5.19
2023-11-30T23:02:08.094Z,-4.52
2023-11-30T23:05:10.041Z,-4.45
2023-11-30T23:08:11.915Z,-5.10
2023-11-30T23:11:15.624Z,-4.93
2023-11-30T23:14:17.583Z,-4.50
2023-11-30T23:17:20.100Z,-4.54
2023-11-30T23:20:22.093Z,-4.56
2023-11-30T23:23:23.802Z,-4.54
2023-11-30T23:26:27.124Z,-4.74
2023-11-30T23:29:28.921Z,-5.08
2023-11-30T23:32:30.858Z,-4.62
2023-11-30T23:35:32.820Z,-4.62
2023-11-30T23:38:35.011Z,-4.73
2023-11-30T23:41:38.125Z,-4.59
2023-11-30T23:44:40.097Z,-4.66
2023-11-30T23:47:42.005Z,-5.13
2023-11-30T23:50:44.165Z,-4.70
2023-11-30T23:53:45.951Z,-4.67
2023-11-30T23:56:49.238Z,-4.70
2023-11-30T23:59:51.115Z,-4.84
